Time;durP1;ratioP1;P1;durP2;ratioP2;P2;SDS_P1;SDS_P2;PMS_P1;PMS_P2;Temp;Humidity;BMP_temperature;BMP_pressure;BME280_temperature;BME280_humidity;BME280_pressure;Samples;Min_cycle;Max_cycle;Signal;HPM_P1;HPM_P2
2023/05/27 00:01:58;;;;;;;6.60;4.60;;;;;;;22.39;48.12;100523.96;105585;1297;68036;-87
2023/05/27 00:04:23;;;;;;;7.20;4.70;;;;;;;22.39;48.30;100526.33;105701;1296;69338;-87
2023/05/27 00:06:49;;;;;;;6.10;4.70;;;;;;;22.38;48.24;100528.48;105688;1297;67224;-87
2023/05/27 00:09:23;;;;;;;8.20;4.70;;;;;;;22.38;48.27;100530.90;105731;1296;68513;-92
2023/05/27 00:11:49;;;;;;;5.50;4.60;;;;;;;22.38;48.36;100535.92;105583;1297;67792;-87
2023/05/27 00:14:17;;;;;;;5.60;4.70;;;;;;;22.37;48.26;100532.59;105720;1297;67822;-87
2023/05/27 00:16:43;;;;;;;6.50;4.90;;;;;;;22.37;48.26;100535.72;105674;1300;83166;-87
2023/05/27 00:19:08;;;;;;;6.30;5.10;;;;;;;22.36;48.39;100534.23;105704;1297;67638;-87
2023/05/27 00:21:34;;;;;;;6.70;5.10;;;;;;;22.36;48.37;100534.65;105675;1297;68337;-87
2023/05/27 00:24:00;;;;;;;5.80;4.80;;;;;;;22.36;48.40;100539.67;105590;1296;67951;-87
2023/05/27 00:26:26;;;;;;;6.30;5.10;;;;;;;22.36;48.38;100543.16;105699;1297;67915;-86
2023/05/27 00:28:51;;;;;;;5.90;4.60;;;;;;;22.35;48.38;100547.92;105635;1297;69328;-86
2023/05/27 00:31:17;;;;;;;6.20;4.90;;;;;;;22.35;48.38;100542.10;105675;1297;67962;-87
2023/05/27 00:33:43;;;;;;;5.10;4.60;;;;;;;22.35;48.36;100535.02;105710;1297;67129;-87
2023/05/27 00:36:18;;;;;;;6.00;5.20;;;;;;;22.35;48.35;100530.34;105707;1297;67857;-91
2023/05/27 00:38:43;;;;;;;8.90;4.90;;;;;;;22.34;48.45;100527.23;105638;1296;83950;-87
2023/05/27 00:41:10;;;;;;;7.60;4.60;;;;;;;22.34;48.40;100531.08;105697;1297;67765;-87
2023/05/27 00:43:36;;;;;;;6.70;4.90;;;;;;;22.34;48.34;100525.17;105460;1297;67993;-87
2023/05/27 00:46:01;;;;;;;8.30;4.80;;;;;;;22.33;48.43;100519.19;105711;1296;67618;-87
2023/05/27 00:48:27;;;;;;;8.60;4.80;;;;;;;22.33;48.48;100521.64;105606;1297;67128;-87
2023/05/27 00:50:53;;;;;;;6.50;4.90;;;;;;;22.32;48.45;100520.05;105549;1297;67835;-87
2023/05/27 00:53:19;;;;;;;6.40;5.20;;;;;;;22.32;48.44;100517.18;105612;1300;67845;-87
2023/05/27 00:55:45;;;;;;;5.70;4.90;;;;;;;22.32;48.40;100512.78;105562;1296;67105;-86
2023/05/27 00:58:10;;;;;;;8.30;5.80;;;;;;;22.31;48.45;100509.76;105614;1297;67111;-86
2023/05/27 01:00:39;;;;;;;6.80;5.20;;;;;;;22.30;48.45;100503.77;105513;1297;68411;-87
2023/05/27 01:03:10;;;;;;;7.80;5.10;;;;;;;22.31;48.53;100504.07;105690;1298;68939;-92
2023/05/27 01:05:36;;;;;;;9.20;5.30;;;;;;;22.31;48.56;100505.20;105656;1296;68029;-86
2023/05/27 01:08:20;;;;;;;7.20;5.30;;;;;;;22.30;48.49;100501.88;105718;1298;68053;-87
2023/05/27 01:10:51;;;;;;;6.50;4.90;;;;;;;22.29;48.58;100503.77;105639;1296;74447;-86
2023/05/27 01:13:31;;;;;;;5.90;4.70;;;;;;;22.29;48.55;100499.46;105701;1297;83137;-87
2023/05/27 01:15:59;;;;;;;8.30;5.20;;;;;;;22.29;48.49;100503.92;105582;1298;72610;-87
2023/05/27 01:18:24;;;;;;;6.70;5.00;;;;;;;22.28;48.67;100502.14;105631;1297;67767;-87
2023/05/27 01:23:24;;;;;;;7.30;5.20;;;;;;;22.28;48.62;100488.76;105930;1294;72664;-86
2023/05/27 01:25:50;;;;;;;7.00;5.20;;;;;;;22.28;48.55;100486.75;105764;1295;68077;-87
2023/05/27 01:28:15;;;;;;;8.10;5.30;;;;;;;22.27;48.44;100487.59;105934;1294;67785;-87
2023/05/27 01:30:41;;;;;;;6.30;5.40;;;;;;;22.27;48.50;100494.08;105939;1293;68340;-87
2023/05/27 01:33:13;;;;;;;6.10;5.30;;;;;;;22.27;48.58;100489.94;106053;1294;68170;-87
2023/05/27 01:38:34;;;;;;;5.70;5.10;;;;;;;22.26;48.45;100485.85;105148;1295;71423;-87
2023/05/27 01:41:00;;;;;;;6.80;5.20;;;;;;;22.26;48.52;100484.58;105706;1296;68483;-86
2023/05/27 01:43:26;;;;;;;6.40;5.60;;;;;;;22.26;48.42;100486.27;105849;1294;67782;-86
2023/05/27 01:45:51;;;;;;;7.00;4.90;;;;;;;22.26;48.40;100490.20;105722;1294;67933;-87
2023/05/27 01:48:19;;;;;;;7.40;5.30;;;;;;;22.25;48.39;100489.48;105939;1294;67695;-87
2023/05/27 01:53:26;;;;;;;9.30;5.40;;;;;;;22.25;48.45;100496.89;105871;1299;67688;-85
2023/05/27 01:55:51;;;;;;;7.30;5.20;;;;;;;22.24;48.48;100502.56;105903;1302;67152;-86
2023/05/27 01:58:17;;;;;;;7.40;5.10;;;;;;;22.25;48.29;100505.48;105809;1297;67761;-86
2023/05/27 02:00:43;;;;;;;6.90;5.10;;;;;;;22.25;48.42;100502.21;105674;1296;67179;-86
2023/05/27 02:03:08;;;;;;;5.60;4.90;;;;;;;22.24;48.36;100499.59;105698;1297;67894;-86
2023/05/27 02:05:35;;;;;;;6.80;4.80;;;;;;;22.24;48.47;100497.89;105685;1297;67164;-85
2023/05/27 02:08:01;;;;;;;5.60;5.10;;;;;;;22.24;48.51;100495.74;105686;1297;81981;-86
2023/05/27 02:10:28;;;;;;;8.60;5.10;;;;;;;22.24;48.46;100494.63;105631;1296;67961;-85
2023/05/27 02:12:53;;;;;;;7.20;5.50;;;;;;;22.23;48.35;100495.59;105495;1297;67729;-86
2023/05/27 02:15:20;;;;;;;7.40;5.30;;;;;;;22.23;48.37;100494.56;105711;1297;67777;-86
2023/05/27 02:17:55;;;;;;;7.00;5.30;;;;;;;22.23;48.22;100495.08;105636;1295;67759;-91
2023/05/27 02:20:22;;;;;;;6.80;5.20;;;;;;;22.23;48.35;100489.04;105563;1297;83840;-86
2023/05/27 02:22:49;;;;;;;11.00;5.40;;;;;;;22.22;48.38;100487.86;105700;1296;67850;-86
2023/05/27 02:25:15;;;;;;;9.30;6.00;;;;;;;22.22;48.28;100486.07;105695;1297;67820;-86
2023/05/27 02:27:41;;;;;;;8.50;6.00;;;;;;;22.21;48.45;100490.27;105676;1298;67677;-86
2023/05/27 02:30:08;;;;;;;9.90;6.30;;;;;;;22.21;48.33;100489.86;105705;1297;67090;-86
2023/05/27 02:32:33;;;;;;;9.60;6.50;;;;;;;22.21;48.26;100490.13;105653;1295;67133;-86
2023/05/27 02:34:59;;;;;;;10.30;6.70;;;;;;;22.21;48.35;100487.82;105670;1296;68275;-86
2023/05/27 02:37:24;;;;;;;8.60;6.80;;;;;;;22.21;48.31;100491.09;105735;1297;67763;-86
2023/05/27 02:39:52;;;;;;;11.80;7.10;;;;;;;22.21;48.35;100492.73;105640;1297;67831;-86
2023/05/27 02:42:18;;;;;;;8.80;7.10;;;;;;;22.20;48.31;100487.71;105603;1297;83053;-86
2023/05/27 02:44:46;;;;;;;9.60;7.20;;;;;;;22.20;48.28;100487.04;105619;1295;67821;-91
2023/05/27 02:47:12;;;;;;;9.90;7.00;;;;;;;22.20;48.30;100487.46;105631;1297;68512;-86
2023/05/27 02:49:37;;;;;;;8.80;6.90;;;;;;;22.20;48.24;100490.64;105567;1301;68045;-86
2023/05/27 02:52:03;;;;;;;9.90;7.50;;;;;;;22.19;48.28;100491.55;105635;1297;68401;-86
2023/05/27 02:54:29;;;;;;;11.90;6.70;;;;;;;22.20;48.31;100494.02;105792;1295;68381;-86
2023/05/27 02:56:54;;;;;;;8.20;6.80;;;;;;;22.19;48.28;100497.55;105793;1297;67796;-87
2023/05/27 02:59:20;;;;;;;8.60;7.10;;;;;;;22.19;48.28;100498.84;105711;1297;67849;-86
2023/05/27 03:01:45;;;;;;;8.80;6.30;;;;;;;22.19;48.28;100497.40;105762;1296;69132;-86
2023/05/27 03:04:11;;;;;;;10.40;6.50;;;;;;;22.18;48.30;100495.96;105793;1296;67809;-86
2023/05/27 03:06:37;;;;;;;8.20;6.20;;;;;;;22.18;48.27;100495.10;105769;1296;67928;-86
2023/05/27 03:09:03;;;;;;;9.00;6.90;;;;;;;22.18;48.26;100496.64;105804;1298;67771;-87
2023/05/27 03:14:09;;;;;;;8.20;6.00;;;;;;;22.17;48.17;100501.47;105654;1297;82824;-86
2023/05/27 03:16:35;;;;;;;8.10;6.40;;;;;;;22.17;48.16;100503.10;105703;1297;67902;-86
2023/05/27 03:19:02;;;;;;;8.90;6.30;;;;;;;22.17;48.19;100505.91;105726;1297;67878;-86
2023/05/27 03:21:27;;;;;;;7.60;6.30;;;;;;;22.16;48.08;100503.21;106026;1297;67204;-86
2023/05/27 03:23:53;;;;;;;6.60;5.80;;;;;;;22.17;48.08;100502.39;106040;1298;67057;-87
2023/05/27 03:26:18;;;;;;;9.10;6.30;;;;;;;22.16;48.16;100504.34;106055;1298;67185;-86
2023/05/27 03:28:44;;;;;;;10.60;5.80;;;;;;;22.16;48.14;100505.56;105918;1298;67669;-87
2023/05/27 03:31:12;;;;;;;10.20;6.10;;;;;;;22.16;48.18;100510.64;105689;1300;67830;-86
2023/05/27 03:33:38;;;;;;;8.90;6.40;;;;;;;22.16;48.05;100513.56;105696;1297;73138;-87
2023/05/27 03:36:03;;;;;;;8.00;6.30;;;;;;;22.15;48.21;100517.30;105964;1297;67253;-86
2023/05/27 03:41:03;;;;;;;8.30;5.90;;;;;;;22.15;47.93;100514.45;106006;1296;68215;-87
2023/05/27 03:43:29;;;;;;;10.80;6.10;;;;;;;22.15;48.02;100511.16;105891;1294;67964;-86
2023/05/27 03:45:54;;;;;;;6.60;5.70;;;;;;;22.15;48.01;100513.89;105843;1295;67929;-86
2023/05/27 03:48:20;;;;;;;11.50;6.20;;;;;;;22.15;47.95;100512.60;105691;1297;68468;-86
2023/05/27 03:50:48;;;;;;;11.00;5.50;;;;;;;22.14;47.93;100509.27;105863;1294;68122;-87
2023/05/27 03:53:13;;;;;;;9.00;6.00;;;;;;;22.14;48.04;100507.85;105806;1297;67640;-86
2023/05/27 03:55:39;;;;;;;7.50;5.80;;;;;;;22.14;47.93;100510.01;105817;1294;67128;-87
2023/05/27 03:58:04;;;;;;;11.30;6.30;;;;;;;22.15;48.00;100511.41;105804;1294;67843;-86
2023/05/27 04:00:30;;;;;;;8.60;6.60;;;;;;;22.14;47.89;100506.16;105846;1295;67138;-86
2023/05/27 04:02:56;;;;;;;7.80;5.90;;;;;;;22.14;47.91;100511.69;105853;1294;68200;-87
2023/05/27 04:05:30;;;;;;;6.20;5.60;;;;;;;22.14;47.79;100511.33;105769;1297;73679;-91
2023/05/27 04:07:56;;;;;;;7.70;5.60;;;;;;;22.14;47.74;100514.30;105802;1295;82830;-87
2023/05/27 04:10:22;;;;;;;11.20;5.50;;;;;;;22.14;47.78;100513.78;105760;1294;67854;-87
2023/05/27 04:12:47;;;;;;;10.40;5.80;;;;;;;22.14;47.78;100512.81;105847;1295;67576;-86
2023/05/27 04:15:13;;;;;;;8.50;5.40;;;;;;;22.14;47.66;100510.45;105849;1294;67851;-87
2023/05/27 04:17:38;;;;;;;11.30;6.80;;;;;;;22.14;47.63;100513.17;105930;1295;67814;-87
2023/05/27 04:20:13;;;;;;;7.70;5.90;;;;;;;22.14;47.69;100511.38;105806;1296;67794;-87
2023/05/27 04:22:54;;;;;;;6.50;5.80;;;;;;;22.14;47.61;100514.14;105651;1296;69188;-87
2023/05/27 04:25:20;;;;;;;8.60;5.60;;;;;;;22.13;47.52;100510.30;105761;1296;67165;-87
2023/05/27 04:27:46;;;;;;;7.50;5.70;;;;;;;22.13;47.63;100512.00;105754;1299;67096;-86
2023/05/27 04:30:11;;;;;;;8.20;6.20;;;;;;;22.14;47.58;100508.98;105724;1297;67085;-86
2023/05/27 04:32:37;;;;;;;11.60;6.30;;;;;;;22.14;47.55;100512.25;105732;1294;67175;-86
2023/05/27 04:35:05;;;;;;;8.60;5.90;;;;;;;22.15;47.56;100510.30;105755;1296;67698;-86
2023/05/27 04:37:32;;;;;;;8.80;5.90;;;;;;;22.14;47.48;100509.84;105856;1294;73586;-86
2023/05/27 04:39:57;;;;;;;8.80;6.00;;;;;;;22.15;47.48;100514.55;105874;1294;83011;-86
2023/05/27 04:42:27;;;;;;;8.90;5.60;;;;;;;22.15;47.46;100512.80;105877;1294;72434;-87
2023/05/27 04:44:52;;;;;;;9.70;5.70;;;;;;;22.15;47.49;100514.55;105856;1295;67289;-87
2023/05/27 04:47:22;;;;;;;7.80;6.10;;;;;;;22.15;47.54;100518.49;105712;1294;67796;-92
2023/05/27 04:49:47;;;;;;;6.60;5.50;;;;;;;22.15;47.43;100518.91;105863;1294;73738;-87
2023/05/27 04:52:13;;;;;;;7.30;5.60;;;;;;;22.15;47.34;100520.04;105846;1294;67205;-86
2023/05/27 04:54:38;;;;;;;6.40;5.60;;;;;;;22.14;47.30;100521.98;105739;1294;69357;-87
2023/05/27 04:57:04;;;;;;;10.20;6.00;;;;;;;22.15;47.28;100520.75;105822;1294;67076;-87
2023/05/27 04:59:45;;;;;;;10.90;6.10;;;;;;;22.15;47.29;100522.59;105923;1295;67762;-86
2023/05/27 05:02:25;;;;;;;7.40;5.70;;;;;;;22.15;47.29;100524.90;105869;1295;82786;-92
2023/05/27 05:04:50;;;;;;;7.00;5.60;;;;;;;22.14;47.32;100522.95;105799;1295;72491;-87
2023/05/27 05:07:17;;;;;;;9.00;5.70;;;;;;;22.15;47.29;100524.39;105832;1295;67564;-87
2023/05/27 05:09:42;;;;;;;10.30;5.70;;;;;;;22.15;47.21;100527.41;105882;1295;67725;-87
2023/05/27 05:12:08;;;;;;;9.20;5.60;;;;;;;22.15;47.25;100530.68;105866;1294;67118;-87
2023/05/27 05:14:33;;;;;;;7.10;5.60;;;;;;;22.15;47.30;100532.89;105713;1294;68059;-88
2023/05/27 05:16:59;;;;;;;6.80;6.00;;;;;;;22.15;47.33;100534.28;105847;1295;68534;-87
2023/05/27 05:19:32;;;;;;;8.00;6.20;;;;;;;22.15;47.13;100538.73;105790;1294;67116;-87
2023/05/27 05:21:58;;;;;;;9.60;6.00;;;;;;;22.15;47.27;100539.25;105883;1294;67801;-87
2023/05/27 05:24:23;;;;;;;6.90;5.60;;;;;;;22.15;47.12;100538.73;105742;1294;68928;-87
2023/05/27 05:26:49;;;;;;;10.00;5.70;;;;;;;22.16;47.23;100542.98;105743;1296;67157;-86
2023/05/27 05:29:15;;;;;;;8.10;6.10;;;;;;;22.15;47.22;100547.91;105878;1296;67869;-86
2023/05/27 05:31:41;;;;;;;11.00;5.90;;;;;;;22.16;47.15;100548.97;105815;1295;74473;-86
2023/05/27 05:34:07;;;;;;;12.40;6.20;;;;;;;22.16;47.15;100554.58;105922;1295;67679;-86
2023/05/27 05:36:33;;;;;;;7.60;5.60;;;;;;;22.16;47.05;100559.58;105897;1295;67958;-87
2023/05/27 05:38:58;;;;;;;8.00;5.70;;;;;;;22.16;47.17;100557.48;105849;1295;67915;-86
2023/05/27 05:41:24;;;;;;;7.60;5.50;;;;;;;22.17;47.07;100563.31;105837;1296;67144;-87
2023/05/27 05:43:49;;;;;;;8.50;6.00;;;;;;;22.17;47.13;100563.02;105861;1296;67898;-86
2023/05/27 05:46:15;;;;;;;7.70;6.20;;;;;;;22.17;46.96;100562.65;105865;1295;72467;-86
2023/05/27 05:48:40;;;;;;;6.50;5.40;;;;;;;22.17;47.02;100566.19;105893;1295;67848;-86
2023/05/27 05:51:06;;;;;;;8.50;5.80;;;;;;;22.17;47.03;100568.09;105860;1295;68400;-86
2023/05/27 05:53:32;;;;;;;9.40;6.10;;;;;;;22.17;47.05;100569.11;105861;1295;68107;-87
2023/05/27 05:56:06;;;;;;;7.70;6.10;;;;;;;22.17;46.96;100571.42;105890;1295;67980;-91
2023/05/27 05:58:32;;;;;;;7.60;6.20;;;;;;;22.18;46.99;100572.03;105790;1295;67889;-86
2023/05/27 06:00:58;;;;;;;7.80;5.70;;;;;;;22.19;47.05;100572.23;105723;1295;68622;-87
2023/05/27 06:03:24;;;;;;;8.70;6.00;;;;;;;22.19;46.94;100573.41;105886;1294;67127;-87
2023/05/27 06:05:49;;;;;;;7.20;5.70;;;;;;;22.19;46.97;100577.51;105826;1295;67215;-87
2023/05/27 06:08:15;;;;;;;8.20;5.70;;;;;;;22.19;46.97;100582.73;105832;1295;67792;-87
2023/05/27 06:10:41;;;;;;;7.20;6.10;;;;;;;22.19;46.96;100584.59;105826;1295;67732;-86
2023/05/27 06:13:10;;;;;;;10.60;5.80;;;;;;;22.20;46.94;100588.73;105914;1295;73593;-87
2023/05/27 06:15:36;;;;;;;6.70;6.00;;;;;;;22.20;46.92;100585.04;105909;1295;84109;-87
2023/05/27 06:18:02;;;;;;;7.60;6.20;;;;;;;22.20;46.99;100588.63;105884;1295;68481;-87
2023/05/27 06:20:28;;;;;;;8.60;6.10;;;;;;;22.20;46.93;100591.90;105832;1294;67077;-87
2023/05/27 06:23:02;;;;;;;8.70;6.00;;;;;;;22.20;46.87;100595.76;105831;1295;68487;-91
2023/05/27 06:25:28;;;;;;;6.60;6.00;;;;;;;22.22;46.83;100596.00;105814;1295;74572;-86
2023/05/27 06:27:53;;;;;;;6.70;5.90;;;;;;;22.21;46.94;100595.70;105823;1298;67238;-86
2023/05/27 06:30:19;;;;;;;10.40;6.20;;;;;;;22.22;46.91;100598.77;105707;1295;68034;-86
2023/05/27 06:32:45;;;;;;;9.30;6.20;;;;;;;22.22;46.87;100597.08;105791;1295;67770;-87
2023/05/27 06:35:10;;;;;;;8.90;6.10;;;;;;;22.22;46.98;100595.70;105872;1295;68033;-86
2023/05/27 06:37:36;;;;;;;9.30;6.30;;;;;;;22.23;46.92;100592.81;105761;1295;82595;-86
2023/05/27 06:40:02;;;;;;;7.90;6.10;;;;;;;22.24;46.90;100591.59;105855;1295;67839;-86
2023/05/27 06:42:27;;;;;;;10.60;6.00;;;;;;;22.24;46.95;100593.18;105823;1295;67811;-86
2023/05/27 06:44:53;;;;;;;8.00;6.30;;;;;;;22.25;46.79;100591.34;105862;1294;68273;-86
2023/05/27 06:47:18;;;;;;;7.80;5.40;;;;;;;22.25;46.84;100588.27;105883;1294;67939;-86
2023/05/27 06:49:53;;;;;;;8.80;6.50;;;;;;;22.26;46.88;100591.18;105863;1295;72377;-91
2023/05/27 06:52:19;;;;;;;11.10;6.50;;;;;;;22.26;46.77;100591.08;105816;1294;67052;-86
2023/05/27 06:54:45;;;;;;;8.70;6.40;;;;;;;22.26;46.81;100589.95;105856;1295;67816;-86
2023/05/27 06:57:11;;;;;;;8.60;5.70;;;;;;;22.27;46.84;100592.70;105863;1294;67041;-86
2023/05/27 06:59:36;;;;;;;8.70;6.30;;;;;;;22.27;46.88;100592.34;105900;1294;67866;-87
2023/05/27 07:02:02;;;;;;;9.60;6.40;;;;;;;22.28;46.95;100589.98;105751;1295;67829;-87
2023/05/27 07:04:28;;;;;;;9.50;6.10;;;;;;;22.28;46.85;100591.27;105871;1294;68273;-86
2023/05/27 07:06:53;;;;;;;10.00;6.80;;;;;;;22.29;46.84;100592.76;105651;1295;73412;-86
2023/05/27 07:09:19;;;;;;;7.80;6.90;;;;;;;22.29;46.80;100593.46;105633;1295;252120;-86
2023/05/27 07:11:44;;;;;;;10.50;6.40;;;;;;;22.29;46.86;100598.74;105866;1294;67855;-86
2023/05/27 07:14:10;;;;;;;10.50;6.70;;;;;;;22.29;46.79;100600.02;105928;1293;67884;-87
2023/05/27 07:19:09;;;;;;;7.70;6.40;;;;;;;22.30;46.76;100594.91;105939;1292;83048;-86
2023/05/27 07:21:36;;;;;;;6.60;5.80;;;;;;;22.30;46.77;100599.30;105860;1294;67774;-86
2023/05/27 07:24:05;;;;;;;8.10;6.60;;;;;;;22.30;46.81;100594.23;105841;1294;67968;-86
2023/05/27 07:26:31;;;;;;;11.80;6.70;;;;;;;22.30;46.65;100585.32;106014;1294;67050;-87
2023/05/27 07:28:57;;;;;;;7.70;6.40;;;;;;;22.30;46.75;100591.94;105995;1294;67664;-87
2023/05/27 07:31:23;;;;;;;8.40;6.20;;;;;;;22.29;46.73;100590.75;106031;1294;68501;-86
2023/05/27 07:33:48;;;;;;;10.20;6.30;;;;;;;22.30;46.80;100591.36;105964;1294;67128;-86
2023/05/27 07:36:14;;;;;;;8.20;6.20;;;;;;;22.30;46.73;100592.17;105746;1296;68417;-86
2023/05/27 07:38:40;;;;;;;8.00;6.50;;;;;;;22.30;46.61;100592.95;105856;1294;68016;-87
2023/05/27 07:41:05;;;;;;;13.10;6.50;;;;;;;22.30;46.69;100594.34;106104;1297;67083;-86
2023/05/27 07:46:11;;;;;;;7.40;6.30;;;;;;;22.31;46.62;100589.09;105812;1294;68523;-86
2023/05/27 07:48:37;;;;;;;9.80;6.30;;;;;;;22.31;46.63;100584.84;105935;1293;67839;-86
2023/05/27 07:51:02;;;;;;;8.10;6.10;;;;;;;22.32;46.56;100581.30;105971;1294;67826;-87
2023/05/27 07:53:28;;;;;;;8.70;6.30;;;;;;;22.32;46.57;100581.62;105920;1294;67869;-86
2023/05/27 07:55:53;;;;;;;8.30;6.50;;;;;;;22.33;46.50;100577.92;105976;1293;67686;-86
2023/05/27 07:58:19;;;;;;;8.80;6.50;;;;;;;22.34;46.57;100579.55;105878;1294;67840;-86
2023/05/27 08:00:45;;;;;;;8.60;6.10;;;;;;;22.34;46.46;100579.92;105923;1293;67928;-86
2023/05/27 08:03:10;;;;;;;8.90;6.50;;;;;;;22.35;46.52;100575.25;105877;1294;67464;-86
2023/05/27 08:05:36;;;;;;;7.50;6.40;;;;;;;22.37;46.36;100576.99;105882;1293;68045;-86
2023/05/27 08:08:01;;;;;;;6.70;6.10;;;;;;;22.39;46.33;100577.86;105783;1294;67751;-86
2023/05/27 08:10:27;;;;;;;9.30;5.80;;;;;;;22.38;46.38;100577.71;105907;1294;74843;-87
2023/05/27 08:12:52;;;;;;;7.60;6.10;;;;;;;22.40;46.33;100578.98;105906;1294;67657;-86
2023/05/27 08:15:18;;;;;;;9.40;6.50;;;;;;;22.40;46.24;100578.77;105879;1294;67153;-86
2023/05/27 08:17:44;;;;;;;9.40;6.50;;;;;;;22.41;46.23;100584.04;105736;1293;67940;-86
2023/05/27 08:20:12;;;;;;;8.20;6.00;;;;;;;22.42;46.20;100589.79;105785;1294;67738;-87
2023/05/27 08:22:37;;;;;;;8.00;6.20;;;;;;;22.42;46.15;100592.25;105896;1294;83165;-87
2023/05/27 08:25:04;;;;;;;8.00;6.30;;;;;;;22.42;46.10;100589.83;105876;1294;67904;-86
2023/05/27 08:27:49;;;;;;;8.00;5.90;;;;;;;22.42;46.07;100596.18;105892;1293;68464;-86
2023/05/27 08:30:18;;;;;;;8.90;6.20;;;;;;;22.42;46.05;100600.30;105892;1294;68059;-86
2023/05/27 08:32:44;;;;;;;7.70;6.00;;;;;;;22.42;46.02;100597.98;105917;1293;73782;-86
2023/05/27 08:35:10;;;;;;;7.80;6.40;;;;;;;22.42;46.06;100597.89;105789;1295;67910;-86
2023/05/27 08:37:37;;;;;;;7.80;6.30;;;;;;;22.42;45.92;100598.03;105829;1294;67763;-87
2023/05/27 08:40:05;;;;;;;8.10;6.30;;;;;;;22.42;45.94;100600.14;105890;1294;67695;-86
2023/05/27 08:42:30;;;;;;;7.40;6.20;;;;;;;22.43;45.99;100597.69;105933;1294;68213;-86
2023/05/27 08:44:56;;;;;;;7.50;6.70;;;;;;;22.43;45.89;100595.09;105981;1293;67194;-86
2023/05/27 08:47:22;;;;;;;8.70;6.50;;;;;;;22.43;45.85;100598.45;105894;1294;67770;-86
2023/05/27 08:49:47;;;;;;;7.00;6.30;;;;;;;22.44;45.74;100595.23;105992;1294;67812;-87
2023/05/27 08:54:54;;;;;;;7.10;6.40;;;;;;;22.45;45.68;100589.55;105843;1294;74704;-86
2023/05/27 08:57:24;;;;;;;7.80;6.20;;;;;;;22.45;45.65;100588.35;105869;1294;83796;-86
2023/05/27 08:59:52;;;;;;;7.30;6.40;;;;;;;22.45;45.70;100589.28;105623;1294;72641;-86
2023/05/27 09:02:18;;;;;;;8.80;6.70;;;;;;;22.45;45.56;100592.15;105760;1294;67825;-86
2023/05/27 09:04:44;;;;;;;8.60;6.60;;;;;;;22.46;45.51;100587.80;105853;1294;67905;-87
2023/05/27 09:09:56;;;;;;;11.50;6.20;;;;;;;22.46;45.55;100588.71;105703;1296;83705;-86
2023/05/27 09:12:25;;;;;;;7.80;6.10;;;;;;;22.47;45.40;100591.07;105695;1295;73320;-86
2023/05/27 09:14:51;;;;;;;9.30;6.70;;;;;;;22.47;45.48;100587.68;105711;1296;67990;-87
2023/05/27 09:17:17;;;;;;;12.80;6.60;;;;;;;22.48;45.46;100587.07;105892;1297;67785;-86
2023/05/27 09:19:44;;;;;;;9.30;6.70;;;;;;;22.48;45.46;100588.09;105944;1297;68663;-86
2023/05/27 09:24:43;;;;;;;7.20;6.50;;;;;;;22.49;45.35;100575.38;105765;1297;71898;-87
2023/05/27 09:27:09;;;;;;;8.70;6.30;;;;;;;22.49;45.36;100574.30;105866;1295;67903;-86
2023/05/27 09:29:37;;;;;;;7.20;6.10;;;;;;;22.50;45.35;100575.93;105895;1296;68577;-86
2023/05/27 09:32:06;;;;;;;7.20;6.50;;;;;;;22.51;45.13;100572.48;105982;1296;73918;-86
2023/05/27 09:34:31;;;;;;;8.20;6.10;;;;;;;22.51;45.15;100568.80;106107;1297;82838;-86
2023/05/27 09:36:58;;;;;;;8.70;6.20;;;;;;;22.51;45.12;100562.80;105666;1296;67592;-86
2023/05/27 09:39:24;;;;;;;7.80;6.00;;;;;;;22.52;45.14;100562.58;105691;1297;68536;-87
2023/05/27 09:41:54;;;;;;;8.00;6.30;;;;;;;22.52;45.08;100559.25;105547;1296;67190;-87
2023/05/27 09:44:19;;;;;;;8.90;6.20;;;;;;;22.53;45.04;100558.58;105837;1296;73753;-86
2023/05/27 09:46:48;;;;;;;10.60;6.90;;;;;;;22.53;45.00;100546.23;105556;1296;67181;-86
2023/05/27 09:49:16;;;;;;;7.90;6.50;;;;;;;22.54;44.88;100546.73;105820;1296;72486;-92
2023/05/27 09:51:42;;;;;;;10.20;6.10;;;;;;;22.54;44.87;100548.69;105757;1295;67681;-86
2023/05/27 09:54:07;;;;;;;8.00;6.30;;;;;;;22.54;44.82;100541.45;105682;1297;67874;-86
2023/05/27 09:56:33;;;;;;;8.00;6.40;;;;;;;22.55;44.80;100535.30;105670;1296;67824;-86
2023/05/27 09:59:00;;;;;;;8.60;6.80;;;;;;;22.56;44.82;100529.44;105551;1297;68572;-87
2023/05/27 10:01:30;;;;;;;10.00;6.30;;;;;;;22.56;44.73;100532.11;105666;1295;67191;-87
2023/05/27 10:03:58;;;;;;;6.90;6.20;;;;;;;22.56;44.69;100527.23;105504;1295;67115;-86
2023/05/27 10:06:41;;;;;;;7.10;6.40;;;;;;;22.57;44.64;100528.32;105786;1292;67741;-86
2023/05/27 10:09:07;;;;;;;9.80;7.00;;;;;;;22.57;44.63;100519.44;105911;1293;67590;-87
2023/05/27 10:11:35;;;;;;;8.80;6.60;;;;;;;22.58;44.57;100518.82;105834;1294;68671;-86
2023/05/27 10:14:01;;;;;;;8.20;6.40;;;;;;;22.58;44.59;100517.91;105855;1292;67134;-86
2023/05/27 10:16:27;;;;;;;7.20;6.40;;;;;;;22.58;44.63;100510.30;105993;1292;68378;-87
2023/05/27 10:21:29;;;;;;;8.80;6.60;;;;;;;22.60;44.56;100500.09;106044;1292;73446;-86
2023/05/27 10:24:01;;;;;;;8.20;6.70;;;;;;;22.60;44.51;100499.99;105886;1292;67839;-86
2023/05/27 10:26:37;;;;;;;8.30;6.50;;;;;;;22.61;44.42;100492.29;106014;1292;72452;-87
2023/05/27 10:29:17;;;;;;;7.10;6.40;;;;;;;22.62;44.45;100484.64;105876;1293;67900;-86
2023/05/27 10:31:52;;;;;;;7.50;6.60;;;;;;;22.62;44.49;100479.00;105859;1292;67935;-86
2023/05/27 10:34:17;;;;;;;7.80;7.00;;;;;;;22.62;44.40;100474.38;105913;1293;73682;-87
2023/05/27 10:36:46;;;;;;;7.70;6.60;;;;;;;22.62;44.39;100475.10;105867;1292;67835;-86
2023/05/27 10:39:16;;;;;;;10.10;6.20;;;;;;;22.62;44.45;100468.08;105889;1293;71297;-86
2023/05/27 10:41:52;;;;;;;9.70;7.30;;;;;;;22.63;44.41;100462.21;105883;1292;67933;-87
2023/05/27 10:44:31;;;;;;;7.10;6.40;;;;;;;22.63;44.35;100455.03;106038;1292;67809;-87
2023/05/27 10:47:04;;;;;;;9.50;6.50;;;;;;;22.63;44.37;100454.21;106026;1292;74004;-87
2023/05/27 10:49:37;;;;;;;8.80;7.20;;;;;;;22.64;44.39;100452.92;105931;1294;83576;-87
2023/05/27 10:52:10;;;;;;;9.00;7.00;;;;;;;22.64;44.30;100454.05;105831;1292;73363;-87
2023/05/27 10:54:37;;;;;;;8.50;7.20;;;;;;;22.65;44.34;100442.66;105976;1292;67714;-87
2023/05/27 10:57:03;;;;;;;7.50;6.80;;;;;;;22.65;44.27;100447.53;105891;1295;67336;-87
2023/05/27 10:59:45;;;;;;;10.10;6.90;;;;;;;22.66;44.30;100448.76;106058;1294;67162;-87
2023/05/27 11:02:11;;;;;;;7.20;6.50;;;;;;;22.66;44.27;100444.05;105914;1295;74543;-87
2023/05/27 11:04:37;;;;;;;9.20;6.70;;;;;;;22.65;44.25;100443.48;105882;1294;68129;-87
2023/05/27 11:07:03;;;;;;;10.70;7.10;;;;;;;22.65;44.27;100437.69;105900;1293;68133;-87
2023/05/27 11:09:28;;;;;;;8.20;6.90;;;;;;;22.65;44.18;100430.30;106032;1293;68111;-87
2023/05/27 11:12:05;;;;;;;7.90;7.10;;;;;;;22.65;44.15;100425.02;105926;1293;67853;-87
2023/05/27 11:14:30;;;;;;;8.30;6.50;;;;;;;22.67;44.19;100421.61;105928;1293;74906;-87
2023/05/27 11:16:56;;;;;;;11.70;7.20;;;;;;;22.67;44.30;100425.88;105903;1292;67886;-87
2023/05/27 11:19:21;;;;;;;7.60;6.50;;;;;;;22.68;44.17;100423.88;105926;1293;67374;-87
2023/05/27 11:21:56;;;;;;;8.60;6.90;;;;;;;22.68;44.19;100416.53;105900;1294;67713;-93
2023/05/27 11:24:22;;;;;;;8.00;7.20;;;;;;;22.69;44.16;100414.22;105857;1297;73869;-87
2023/05/27 11:26:47;;;;;;;9.80;7.20;;;;;;;22.70;44.23;100413.45;105989;1294;68194;-87
2023/05/27 11:29:14;;;;;;;9.50;7.20;;;;;;;22.71;44.09;100405.39;106065;1294;67935;-87
2023/05/27 11:31:42;;;;;;;7.70;6.70;;;;;;;22.71;44.09;100398.52;105756;1294;68556;-87
2023/05/27 11:34:19;;;;;;;10.40;7.00;;;;;;;22.72;44.10;100402.20;105971;1292;67062;-87
2023/05/27 11:37:08;;;;;;;7.40;6.70;;;;;;;22.72;44.19;100405.07;105845;1292;73706;-92
2023/05/27 11:39:34;;;;;;;8.40;7.50;;;;;;;22.71;44.14;100397.14;106031;1293;83937;-87
2023/05/27 11:42:00;;;;;;;7.70;6.90;;;;;;;22.70;44.08;100399.19;106039;1292;67775;-87
2023/05/27 11:44:25;;;;;;;8.30;6.80;;;;;;;22.71;44.00;100394.92;106080;1292;67569;-87
2023/05/27 11:46:59;;;;;;;7.90;7.00;;;;;;;22.70;44.09;100398.94;106095;1293;67841;-87